createdAt,value
2022-12-04T00:00:28.793Z,2.08
2022-12-04T00:01:28.865Z,2.08
2022-12-04T00:02:29.196Z,2
2022-12-04T00:03:29.540Z,2
2022-12-04T00:04:29.629Z,1.92
2022-12-04T00:05:29.778Z,2
2022-12-04T00:06:29.971Z,2
2022-12-04T00:07:29.755Z,2
2022-12-04T00:08:29.847Z,2.08
2022-12-04T00:09:30.007Z,1.92
2022-12-04T00:10:30.152Z,2
2022-12-04T00:11:30.306Z,2.24
2022-12-04T00:12:30.438Z,2.24
2022-12-04T00:13:30.599Z,2.24
2022-12-04T00:14:30.732Z,2.08
2022-12-04T00:15:30.900Z,2.08
2022-12-04T00:16:31.104Z,2
2022-12-04T00:17:31.154Z,2
2022-12-04T00:18:31.251Z,2
2022-12-04T00:19:31.389Z,1.92
2022-12-04T00:20:31.546Z,2
2022-12-04T00:21:31.651Z,2
2022-12-04T00:22:31.876Z,1.92
2022-12-04T00:23:31.948Z,1.92
2022-12-04T00:24:32.116Z,2
2022-12-04T00:25:35.303Z,2.08
2022-12-04T00:26:32.415Z,2
2022-12-04T00:27:32.575Z,2.08
2022-12-04T00:28:32.717Z,2.08
2022-12-04T00:29:32.868Z,2.24
2022-12-04T00:30:33.016Z,2.08
2022-12-04T00:31:33.175Z,2
2022-12-04T00:32:33.319Z,2.08
2022-12-04T00:33:33.471Z,2
2022-12-04T00:34:33.627Z,2
2022-12-04T00:35:33.768Z,2
2022-12-04T00:36:33.933Z,2
2022-12-04T00:37:34.072Z,2.08
2022-12-04T00:38:34.189Z,2
2022-12-04T00:39:34.329Z,2.08
2022-12-04T00:40:34.487Z,2.24
2022-12-04T00:41:34.635Z,2.24
2022-12-04T00:42:34.789Z,2.08
2022-12-04T00:43:34.959Z,2.08
2022-12-04T00:44:35.129Z,2.08
2022-12-04T00:45:35.301Z,2.08
2022-12-04T00:46:35.330Z,2.08
2022-12-04T00:47:35.439Z,2.08
2022-12-04T00:48:35.588Z,2
2022-12-04T00:49:35.745Z,2.08
2022-12-04T00:50:35.846Z,1.92
2022-12-04T00:51:35.992Z,1.84
2022-12-04T00:52:36.145Z,2
2022-12-04T00:53:36.298Z,2.08
2022-12-04T00:54:36.452Z,2.08
2022-12-04T00:55:36.601Z,2.08
2022-12-04T00:56:36.783Z,2.24
2022-12-04T00:57:36.953Z,2.08
2022-12-04T00:58:37.096Z,2.24
2022-12-04T00:59:37.209Z,2.08
2022-12-04T01:00:37.363Z,2.08
2022-12-04T01:01:37.538Z,2
2022-12-04T01:02:37.651Z,2
2022-12-04T01:03:37.717Z,2
2022-12-04T01:04:37.865Z,2
2022-12-04T01:05:38.024Z,2
2022-12-04T01:06:38.171Z,2.08
2022-12-04T01:07:38.367Z,2.08
2022-12-04T01:08:38.477Z,2.08
2022-12-04T01:09:38.623Z,2.24
2022-12-04T01:10:38.733Z,2.32
2022-12-04T01:11:38.873Z,2.32
2022-12-04T01:12:39.027Z,2.32
2022-12-04T01:13:39.183Z,2.08
2022-12-04T01:14:39.340Z,2.08
2022-12-04T01:15:39.471Z,2.24
2022-12-04T01:16:39.697Z,2.24
2022-12-04T01:17:39.798Z,2
2022-12-04T01:18:39.894Z,2.08
2022-12-04T01:19:40.037Z,2.24
2022-12-04T01:20:40.184Z,2.08
2022-12-04T01:21:40.327Z,2.32
2022-12-04T01:22:40.455Z,2.24
2022-12-04T01:23:40.599Z,2.32
2022-12-04T01:24:40.743Z,2.48
2022-12-04T01:25:40.897Z,2.24
2022-12-04T01:26:41.048Z,2.48
2022-12-04T01:27:41.153Z,2.32
2022-12-04T01:28:41.305Z,2.24
2022-12-04T01:29:41.442Z,2.24
2022-12-04T01:30:41.589Z,2.24
2022-12-04T01:31:41.828Z,2.24
2022-12-04T01:32:41.912Z,2.24
2022-12-04T01:33:42.066Z,2.24
2022-12-04T01:34:42.219Z,2.24
2022-12-04T01:35:42.352Z,2.24
2022-12-04T01:36:42.512Z,2.24
2022-12-04T01:37:42.665Z,2.08
2022-12-04T01:38:42.817Z,2.24
2022-12-04T01:39:42.964Z,2.32
2022-12-04T01:40:43.072Z,2.4
2022-12-04T01:41:43.178Z,2.8
2022-12-04T01:42:43.321Z,2.48
2022-12-04T01:43:43.473Z,2.4
2022-12-04T01:44:43.581Z,2.24
2022-12-04T01:45:43.781Z,2.32
2022-12-04T01:46:43.827Z,2.32
2022-12-04T01:47:43.972Z,2.24
2022-12-04T01:48:44.141Z,2.32
2022-12-04T01:49:44.288Z,2.24
2022-12-04T01:50:44.432Z,2.32
2022-12-04T01:51:44.570Z,2.4
2022-12-04T01:52:44.674Z,2.32
2022-12-04T01:53:44.831Z,2.4
2022-12-04T01:54:44.987Z,2.48
2022-12-04T01:55:45.137Z,2.48
2022-12-04T01:56:45.253Z,2.88
2022-12-04T01:57:45.395Z,2.64
2022-12-04T01:58:45.497Z,2.48
2022-12-04T01:59:45.658Z,2.48
2022-12-04T02:00:49.717Z,2.48
2022-12-04T02:01:46.007Z,2.4
2022-12-04T02:02:46.141Z,2.48
2022-12-04T02:03:46.251Z,2.4
2022-12-04T02:04:46.395Z,2.4
2022-12-04T02:05:46.553Z,2.4
2022-12-04T02:06:46.709Z,2.48
2022-12-04T02:07:46.916Z,2.64
2022-12-04T02:08:46.967Z,2.64
2022-12-04T02:09:47.111Z,2.64
2022-12-04T02:10:47.256Z,2.48
2022-12-04T02:11:47.418Z,2.48
2022-12-04T02:12:47.896Z,2.64
2022-12-04T02:13:48.033Z,2.48
2022-12-04T02:14:47.817Z,2.48
2022-12-04T02:15:47.952Z,2.4
2022-12-04T02:16:48.160Z,2.4
2022-12-04T02:17:48.221Z,2.4
2022-12-04T02:18:48.371Z,2.32
2022-12-04T02:19:48.522Z,2.48
2022-12-04T02:20:48.669Z,2.48
2022-12-04T02:21:48.841Z,2.64
2022-12-04T02:22:48.984Z,2.64
2022-12-04T02:23:49.136Z,2.64
2022-12-04T02:24:50.252Z,2.64
2022-12-04T02:25:49.434Z,2.8
2022-12-04T02:26:49.576Z,2.72
2022-12-04T02:27:49.737Z,2.48
2022-12-04T02:28:49.889Z,2.48
2022-12-04T02:29:50.049Z,2.48
2022-12-04T02:30:50.218Z,2.48
2022-12-04T02:31:50.283Z,2.4
2022-12-04T02:32:50.439Z,2.48
2022-12-04T02:33:50.594Z,2.48
2022-12-04T02:34:50.747Z,2.72
2022-12-04T02:35:50.894Z,2.72
2022-12-04T02:36:51.041Z,2.64
2022-12-04T02:37:51.204Z,2.72
2022-12-04T02:38:51.309Z,2.64
2022-12-04T02:39:51.459Z,2.8
2022-12-04T02:40:51.563Z,2.64
2022-12-04T02:41:51.708Z,2.72
2022-12-04T02:42:51.864Z,2.48
2022-12-04T02:43:52.004Z,2.48
2022-12-04T02:44:52.159Z,2.4
2022-12-04T02:45:52.354Z,2.64
2022-12-04T02:46:52.395Z,2.48
2022-12-04T02:47:52.553Z,2.4
2022-12-04T02:48:52.705Z,2.64
2022-12-04T02:49:53.061Z,2.72
2022-12-04T02:50:53.024Z,2.64
2022-12-04T02:51:53.167Z,2.64
2022-12-04T02:52:53.323Z,2.64
2022-12-04T02:53:53.465Z,2.64
2022-12-04T02:54:53.625Z,2.64
2022-12-04T02:55:53.795Z,2.72
2022-12-04T02:56:53.926Z,2.64
2022-12-04T02:57:54.086Z,2.48
2022-12-04T02:58:54.241Z,2.48
2022-12-04T02:59:54.627Z,2.64
2022-12-04T03:00:54.565Z,2.48
2022-12-04T03:01:54.675Z,2.4
2022-12-04T03:02:54.862Z,2.48
2022-12-04T03:03:54.890Z,2.48
2022-12-04T03:04:55.036Z,2.72
2022-12-04T03:05:55.192Z,2.72
2022-12-04T03:06:55.337Z,2.72
2022-12-04T03:07:55.506Z,2.64
2022-12-04T03:08:55.597Z,2.64
2022-12-04T03:09:56.064Z,2.72
2022-12-04T03:10:55.844Z,2.72
2022-12-04T03:11:55.975Z,2.72
2022-12-04T03:12:56.099Z,2.48
2022-12-04T03:13:56.266Z,2.48
2022-12-04T03:14:56.413Z,2.4
2022-12-04T03:15:56.538Z,2.64
2022-12-04T03:16:56.747Z,2.32
2022-12-04T03:17:56.852Z,2.24
2022-12-04T03:18:56.963Z,2.08
2022-12-04T03:19:57.430Z,2.08
2022-12-04T03:20:57.303Z,2
2022-12-04T03:21:57.502Z,2
2022-12-04T03:22:57.556Z,2.24
2022-12-04T03:23:57.686Z,2.08
2022-12-04T03:24:57.813Z,2
2022-12-04T03:25:57.971Z,2.24
2022-12-04T03:26:58.069Z,2.24
2022-12-04T03:27:58.213Z,2.32
2022-12-04T03:28:58.351Z,2.24
2022-12-04T03:29:58.559Z,2.24
2022-12-04T03:30:58.804Z,2.24
2022-12-04T03:31:58.915Z,2.08
2022-12-04T03:32:59.072Z,2.24
2022-12-04T03:33:59.221Z,2
2022-12-04T03:34:59.375Z,1.84
2022-12-04T03:35:59.527Z,1.84
2022-12-04T03:36:59.640Z,1.92
2022-12-04T03:37:59.781Z,1.68
2022-12-04T03:38:59.933Z,1.6
2022-12-04T03:40:00.088Z,1.68
2022-12-04T03:41:00.237Z,1.6
2022-12-04T03:42:00.338Z,1.6
2022-12-04T03:43:00.487Z,1.6
2022-12-04T03:44:00.638Z,1.68
2022-12-04T03:45:00.756Z,1.84
2022-12-04T03:46:00.918Z,1.68
2022-12-04T03:47:00.987Z,1.6
2022-12-04T03:48:01.098Z,1.68
2022-12-04T03:49:01.260Z,1.84
2022-12-04T03:50:01.405Z,1.68
2022-12-04T03:51:01.557Z,1.84
2022-12-04T03:52:01.698Z,1.6
2022-12-04T03:53:01.789Z,1.84
2022-12-04T03:54:01.959Z,1.68
2022-12-04T03:55:02.054Z,1.68
2022-12-04T03:56:02.206Z,1.52
2022-12-04T03:57:02.321Z,1.52
2022-12-04T03:58:02.401Z,1.6
2022-12-04T03:59:02.591Z,1.52
2022-12-04T04:00:03.259Z,1.52
2022-12-04T04:01:02.893Z,1.52
2022-12-04T04:02:03.113Z,1.52
2022-12-04T04:03:03.201Z,1.6
2022-12-04T04:04:03.291Z,1.6
2022-12-04T04:05:03.438Z,1.52
2022-12-04T04:06:03.570Z,1.84
2022-12-04T04:07:03.731Z,1.6
2022-12-04T04:08:03.959Z,1.68
2022-12-04T04:09:03.981Z,1.52
2022-12-04T04:10:04.127Z,1.52
2022-12-04T04:11:04.281Z,1.6
2022-12-04T04:12:04.426Z,1.52
2022-12-04T04:13:04.584Z,1.44
2022-12-04T04:14:04.732Z,1.52
2022-12-04T04:15:04.896Z,1.44
2022-12-04T04:16:05.114Z,1.52
2022-12-04T04:17:05.128Z,1.52
2022-12-04T04:18:05.286Z,1.6
2022-12-04T04:19:05.435Z,1.52
2022-12-04T04:20:05.598Z,1.6
2022-12-04T04:21:05.747Z,1.6
2022-12-04T04:22:05.908Z,1.52
2022-12-04T04:23:06.052Z,1.52
2022-12-04T04:24:06.205Z,1.52
2022-12-04T04:25:06.358Z,1.52
2022-12-04T04:26:06.504Z,1.52
2022-12-04T04:27:06.599Z,1.52
2022-12-04T04:28:06.758Z,1.52
2022-12-04T04:29:06.896Z,1.52
2022-12-04T04:30:07.056Z,1.52
2022-12-04T04:31:07.270Z,1.28
2022-12-04T04:32:07.297Z,1.28
2022-12-04T04:33:07.461Z,1.44
2022-12-04T04:34:07.616Z,1.6
2022-12-04T04:35:07.758Z,1.52
2022-12-04T04:36:07.867Z,1.28
2022-12-04T04:37:08.014Z,1.6
2022-12-04T04:38:08.178Z,1.44
2022-12-04T04:39:08.267Z,1.44
2022-12-04T04:40:08.429Z,1.44
2022-12-04T04:41:08.576Z,1.52
2022-12-04T04:42:08.726Z,1.6
2022-12-04T04:43:08.874Z,1.6
2022-12-04T04:44:09.018Z,1.52
2022-12-04T04:45:09.181Z,1.52
2022-12-04T04:46:09.362Z,1.44
2022-12-04T04:47:09.424Z,1.52
2022-12-04T04:48:09.535Z,1.52
2022-12-04T04:49:09.686Z,1.44
2022-12-04T04:50:09.839Z,1.52
2022-12-04T04:51:09.985Z,1.52
2022-12-04T04:52:10.134Z,1.52
2022-12-04T04:53:10.243Z,1.6
2022-12-04T04:54:10.390Z,1.52
2022-12-04T04:55:10.545Z,1.52
2022-12-04T04:56:10.703Z,1.52
2022-12-04T04:57:10.848Z,1.44
2022-12-04T04:58:10.955Z,1.52
2022-12-04T04:59:11.099Z,1.52
2022-12-04T05:00:11.281Z,1.52
2022-12-04T05:01:11.523Z,1.52
2022-12-04T05:02:11.610Z,1.52
2022-12-04T05:03:11.756Z,1.52
2022-12-04T05:04:11.808Z,1.44
2022-12-04T05:05:11.906Z,1.52
2022-12-04T05:06:12.059Z,1.52
2022-12-04T05:07:12.162Z,1.52
2022-12-04T05:08:12.362Z,1.52
2022-12-04T05:09:12.459Z,1.52
2022-12-04T05:10:12.616Z,1.44
2022-12-04T05:11:12.712Z,1.6
2022-12-04T05:12:12.886Z,1.6
2022-12-04T05:13:13.007Z,1.6
2022-12-04T05:14:13.170Z,1.44
2022-12-04T05:15:13.282Z,1.6
2022-12-04T05:16:13.426Z,1.44
2022-12-04T05:17:13.533Z,1.6
2022-12-04T05:18:13.672Z,1.68
2022-12-04T05:19:13.875Z,1.52
2022-12-04T05:20:13.965Z,1.6
2022-12-04T05:21:14.078Z,1.6
2022-12-04T05:22:14.226Z,1.6
2022-12-04T05:23:14.386Z,1.52
2022-12-04T05:24:14.538Z,1.52
2022-12-04T05:25:14.696Z,1.28
2022-12-04T05:26:14.835Z,1.52
2022-12-04T05:27:14.992Z,1.44
2022-12-04T05:28:15.138Z,1.44
2022-12-04T05:29:15.298Z,1.44
2022-12-04T05:30:15.441Z,1.52
2022-12-04T05:31:15.643Z,1.52
2022-12-04T05:32:15.685Z,1.6
2022-12-04T05:33:15.852Z,1.44
2022-12-04T05:34:16.004Z,1.52
2022-12-04T05:35:16.150Z,1.52
2022-12-04T05:36:16.256Z,1.52
2022-12-04T05:37:16.399Z,1.44
2022-12-04T05:38:16.506Z,1.44
2022-12-04T05:39:16.656Z,1.44
2022-12-04T05:40:16.802Z,1.44
2022-12-04T05:41:16.932Z,1.44
2022-12-04T05:42:17.049Z,1.44
2022-12-04T05:43:17.213Z,1.44
2022-12-04T05:44:17.373Z,1.28
2022-12-04T05:45:17.462Z,1.28
2022-12-04T05:46:17.601Z,1.44
2022-12-04T05:47:17.707Z,1.44
2022-12-04T05:48:17.810Z,1.44
2022-12-04T05:49:17.981Z,1.44
2022-12-04T05:50:18.120Z,1.44
2022-12-04T05:51:18.293Z,1.6
2022-12-04T05:52:18.421Z,1.44
2022-12-04T05:53:18.568Z,1.44
2022-12-04T05:54:18.680Z,1.28
2022-12-04T05:55:18.826Z,1.2
2022-12-04T05:56:18.930Z,1.28
2022-12-04T05:57:19.078Z,1.28
2022-12-04T05:58:19.183Z,1.2
2022-12-04T05:59:19.337Z,1.28
2022-12-04T06:00:19.489Z,1.28
2022-12-04T06:01:19.624Z,1.2
2022-12-04T06:02:19.838Z,1.44
2022-12-04T06:03:20.010Z,1.44
2022-12-04T06:04:20.092Z,1.52
2022-12-04T06:05:20.246Z,1.52
2022-12-04T06:06:22.022Z,1.44
2022-12-04T06:07:20.557Z,1.44
2022-12-04T06:08:20.704Z,1.28
2022-12-04T06:09:20.845Z,1.2
2022-12-04T06:10:20.997Z,1.28
2022-12-04T06:11:21.151Z,1.44
2022-12-04T06:12:21.303Z,1.44
2022-12-04T06:13:21.465Z,1.68
2022-12-04T06:14:21.602Z,1.44
2022-12-04T06:15:21.705Z,1.52
2022-12-04T06:16:21.866Z,1.28
2022-12-04T06:17:21.956Z,1.28
2022-12-04T06:18:22.106Z,1.44
2022-12-04T06:19:22.262Z,1.52
2022-12-04T06:20:22.446Z,1.44
2022-12-04T06:21:22.571Z,1.44
2022-12-04T06:22:22.728Z,1.44
2022-12-04T06:23:22.879Z,1.44
2022-12-04T06:24:23.014Z,1.44
2022-12-04T06:25:23.181Z,1.68
2022-12-04T06:26:23.320Z,1.6
2022-12-04T06:27:27.888Z,1.44
2022-12-04T06:28:23.527Z,1.52
2022-12-04T06:29:23.678Z,1.2
2022-12-04T06:30:23.770Z,1.28
2022-12-04T06:31:23.988Z,1.52
2022-12-04T06:32:24.062Z,1.6
2022-12-04T06:33:24.174Z,1.44
2022-12-04T06:34:24.270Z,1.52
2022-12-04T06:35:24.440Z,1.52
2022-12-04T06:36:24.592Z,1.44
2022-12-04T06:37:24.696Z,1.28
2022-12-04T06:38:24.841Z,1.44
2022-12-04T06:39:24.936Z,1.28
2022-12-04T06:40:25.101Z,1.6
2022-12-04T06:41:25.206Z,1.44
2022-12-04T06:42:25.352Z,1.28
2022-12-04T06:43:25.498Z,1.2
2022-12-04T06:44:25.643Z,1.2
2022-12-04T06:45:25.844Z,1.28
2022-12-04T06:46:26.024Z,1.44
2022-12-04T06:47:26.087Z,1.44
2022-12-04T06:48:26.250Z,1.2
2022-12-04T06:49:26.430Z,1.2
2022-12-04T06:50:26.548Z,1.2
2022-12-04T06:51:26.691Z,1.52
2022-12-04T06:52:26.769Z,1.52
2022-12-04T06:53:26.946Z,1.52
2022-12-04T06:54:27.105Z,1.52
2022-12-04T06:55:27.648Z,1.52
2022-12-04T06:56:27.405Z,1.52
2022-12-04T06:57:27.510Z,1.52
2022-12-04T06:58:27.671Z,1.52
2022-12-04T06:59:27.780Z,1.52
2022-12-04T07:00:27.925Z,1.6
2022-12-04T07:01:28.095Z,1.6
2022-12-04T07:02:28.219Z,1.68
2022-12-04T07:03:28.256Z,1.68
2022-12-04T07:04:28.359Z,1.68
2022-12-04T07:05:28.468Z,1.68
2022-12-04T07:06:28.627Z,1.6
2022-12-04T07:07:28.799Z,1.68
2022-12-04T07:08:28.876Z,1.68
2022-12-04T07:09:29.022Z,1.68
2022-12-04T07:10:29.190Z,1.68
2022-12-04T07:11:29.339Z,1.68
2022-12-04T07:12:29.489Z,1.92
2022-12-04T07:13:29.640Z,1.68
2022-12-04T07:14:29.789Z,1.6
2022-12-04T07:15:29.950Z,1.68
2022-12-04T07:16:32.786Z,1.84
2022-12-04T07:17:30.250Z,1.84
2022-12-04T07:18:30.399Z,1.92
2022-12-04T07:19:30.583Z,1.84
2022-12-04T07:20:30.901Z,1.92
2022-12-04T07:21:30.844Z,1.92
2022-12-04T07:22:31.003Z,1.92
2022-12-04T07:23:31.151Z,1.92
2022-12-04T07:24:31.312Z,1.92
2022-12-04T07:25:31.409Z,1.92
2022-12-04T07:26:31.513Z,1.92
2022-12-04T07:27:31.665Z,1.92
2022-12-04T07:28:31.804Z,1.84
2022-12-04T07:29:31.919Z,1.84
2022-12-04T07:30:32.058Z,1.84
2022-12-04T07:31:32.337Z,1.84
2022-12-04T07:32:32.308Z,1.84
2022-12-04T07:33:32.405Z,1.84
2022-12-04T07:34:32.579Z,1.84
2022-12-04T07:35:32.686Z,1.84
2022-12-04T07:36:32.823Z,1.92
2022-12-04T07:37:32.988Z,1.68
2022-12-04T07:38:33.121Z,1.68
2022-12-04T07:39:33.222Z,1.68
2022-12-04T07:40:33.373Z,1.68
2022-12-04T07:41:33.529Z,1.84
2022-12-04T07:42:33.699Z,1.68
2022-12-04T07:43:33.803Z,1.84
2022-12-04T07:44:33.925Z,1.68
2022-12-04T07:45:34.128Z,1.68
2022-12-04T07:46:34.310Z,1.68
2022-12-04T07:47:34.330Z,1.68
2022-12-04T07:48:35.137Z,1.84
2022-12-04T07:49:34.630Z,1.84
2022-12-04T07:50:34.793Z,1.84
2022-12-04T07:51:34.880Z,1.84
2022-12-04T07:52:35.053Z,1.68
2022-12-04T07:53:35.200Z,2.24
2022-12-04T07:54:35.308Z,2
2022-12-04T07:55:35.444Z,1.92
2022-12-04T07:56:35.617Z,1.84
2022-12-04T07:57:35.748Z,1.84
2022-12-04T07:58:35.899Z,1.84
2022-12-04T07:59:36.064Z,1.92
2022-12-04T08:00:36.194Z,1.84
2022-12-04T08:01:36.389Z,1.84
2022-12-04T08:02:36.460Z,2
2022-12-04T08:03:36.612Z,2.08
2022-12-04T08:04:36.825Z,2.08
2022-12-04T08:05:36.907Z,2
2022-12-04T08:06:37.067Z,1.92
2022-12-04T08:07:37.250Z,1.92
2022-12-04T08:08:37.371Z,1.92
2022-12-04T08:09:37.527Z,1.92
2022-12-04T08:10:37.673Z,1.92
2022-12-04T08:11:37.810Z,1.92
2022-12-04T08:12:37.972Z,2
2022-12-04T08:13:38.123Z,2
2022-12-04T08:14:38.272Z,2.08
2022-12-04T08:15:38.365Z,2.08
2022-12-04T08:16:38.610Z,1.92
2022-12-04T08:17:38.685Z,2.08
2022-12-04T08:18:38.830Z,2.08
2022-12-04T08:19:38.980Z,2.32
2022-12-04T08:20:39.132Z,2.24
2022-12-04T08:21:39.239Z,2.24
2022-12-04T08:22:39.390Z,2.08
2022-12-04T08:23:39.543Z,2.32
2022-12-04T08:24:39.690Z,2.24
2022-12-04T08:25:39.833Z,2.32
2022-12-04T08:26:39.955Z,2.32
2022-12-04T08:27:43.237Z,2.32
2022-12-04T08:28:40.241Z,2.32
2022-12-04T08:29:40.399Z,2.24
2022-12-04T08:30:40.527Z,2.24
2022-12-04T08:31:40.714Z,2.24
2022-12-04T08:32:40.803Z,2.24
2022-12-04T08:33:40.953Z,2.24
2022-12-04T08:34:41.096Z,2.4
2022-12-04T08:35:41.207Z,2.4
2022-12-04T08:36:41.308Z,2.24
2022-12-04T08:37:41.460Z,2.24
2022-12-04T08:38:41.608Z,2.24
2022-12-04T08:39:41.757Z,2.24
2022-12-04T08:40:41.873Z,2.24
2022-12-04T08:41:42.021Z,2.24
2022-12-04T08:42:42.174Z,2.48
2022-12-04T08:43:42.317Z,2.32
2022-12-04T08:44:42.483Z,2.08
2022-12-04T08:45:42.737Z,2.24
2022-12-04T08:46:42.787Z,2.24
2022-12-04T08:47:43.205Z,2.32
2022-12-04T08:48:42.972Z,2.24
2022-12-04T08:49:43.123Z,2.32
2022-12-04T08:50:43.269Z,2.32
2022-12-04T08:51:43.429Z,2.4
2022-12-04T08:52:43.570Z,2.4
2022-12-04T08:53:43.729Z,2.4
2022-12-04T08:54:43.883Z,2.48
2022-12-04T08:55:44.033Z,2.4
2022-12-04T08:56:44.191Z,2.32
2022-12-04T08:57:44.337Z,2.32
2022-12-04T08:58:44.432Z,2.32
2022-12-04T08:59:44.544Z,2.32
2022-12-04T09:00:44.700Z,2.4
2022-12-04T09:01:44.905Z,2.48
2022-12-04T09:02:44.991Z,2.4
2022-12-04T09:03:45.164Z,2.48
2022-12-04T09:04:45.352Z,2.64
2022-12-04T09:05:45.451Z,2.64
2022-12-04T09:06:45.564Z,2.8
2022-12-04T09:07:45.698Z,2.64
2022-12-04T09:08:45.800Z,2.48
2022-12-04T09:09:48.328Z,2.32
2022-12-04T09:10:46.107Z,2.4
2022-12-04T09:11:46.251Z,2.4
2022-12-04T09:12:46.409Z,2.32
2022-12-04T09:13:46.567Z,2.24
2022-12-04T09:14:46.724Z,2.32
2022-12-04T09:15:46.907Z,2.32
2022-12-04T09:16:46.948Z,2.32
2022-12-04T09:17:47.123Z,2.4
2022-12-04T09:18:47.254Z,2.4
2022-12-04T09:19:47.415Z,2.4
2022-12-04T09:20:47.578Z,2.4
2022-12-04T09:21:47.723Z,2.48
2022-12-04T09:23:03.181Z,2.4
2022-12-04T09:23:47.974Z,2.4
2022-12-04T09:24:48.079Z,2.48
2022-12-04T09:25:48.221Z,2.4
2022-12-04T09:26:48.380Z,2.48
2022-12-04T09:27:48.536Z,2.48
2022-12-04T09:28:48.679Z,2.48
2022-12-04T09:29:48.832Z,2.32
2022-12-04T09:30:48.959Z,2.4
2022-12-04T09:31:49.022Z,2.48
2022-12-04T09:32:49.127Z,2.48
2022-12-04T09:33:49.288Z,2.64
2022-12-04T09:34:52.607Z,2.48
2022-12-04T09:35:49.609Z,2.48
2022-12-04T09:36:49.705Z,2.48
2022-12-04T09:37:49.807Z,2.8
2022-12-04T09:38:49.945Z,2.64
2022-12-04T09:39:50.092Z,2.64
2022-12-04T09:40:50.233Z,2.48
2022-12-04T09:41:50.912Z,2.4
2022-12-04T09:42:50.540Z,2.64
2022-12-04T09:43:50.687Z,2.72
2022-12-04T09:44:51.339Z,2.72
2022-12-04T09:45:51.024Z,2.8
2022-12-04T09:46:51.470Z,2.8
2022-12-04T09:47:51.259Z,2.88
2022-12-04T09:48:51.411Z,3.04
2022-12-04T09:49:51.563Z,2.88
2022-12-04T09:50:51.682Z,2.88
2022-12-04T09:51:51.775Z,2.72
2022-12-04T09:52:51.912Z,2.72
2022-12-04T09:53:52.069Z,2.72
2022-12-04T09:54:52.225Z,2.64
2022-12-04T09:55:52.370Z,2.48
2022-12-04T09:56:52.518Z,2.48
2022-12-04T09:57:55.902Z,2.72
2022-12-04T09:58:52.819Z,2.64
2022-12-04T09:59:53.167Z,2.48
2022-12-04T10:00:53.107Z,2.72
2022-12-04T10:01:53.274Z,2.72
2022-12-04T10:02:53.533Z,2.88
2022-12-04T10:03:53.678Z,2.88
2022-12-04T10:04:53.740Z,2.8
2022-12-04T10:05:53.889Z,3.04
2022-12-04T10:06:54.046Z,3.12
2022-12-04T10:07:54.287Z,3.04
2022-12-04T10:08:54.344Z,2.88
2022-12-04T10:09:54.758Z,2.8
2022-12-04T10:10:54.588Z,2.8
2022-12-04T10:11:54.754Z,2.88
2022-12-04T10:12:54.882Z,3.04
2022-12-04T10:13:55.033Z,2.88
2022-12-04T10:14:55.189Z,2.88
2022-12-04T10:15:55.436Z,2.88
2022-12-04T10:16:55.494Z,3.04
2022-12-04T10:17:55.672Z,3.04
2022-12-04T10:18:55.788Z,3.04
2022-12-04T10:19:56.200Z,3.2
2022-12-04T10:20:56.106Z,3.12
2022-12-04T10:21:56.248Z,3.04
2022-12-04T10:22:56.411Z,3.12
2022-12-04T10:23:56.564Z,3.04
2022-12-04T10:24:56.727Z,3.04
2022-12-04T10:25:56.885Z,3.28
2022-12-04T10:26:57.008Z,3.2
2022-12-04T10:27:57.146Z,3.12
2022-12-04T10:28:57.267Z,3.28
2022-12-04T10:29:57.792Z,3.12
2022-12-04T10:30:57.577Z,3.04
2022-12-04T10:31:57.656Z,3.12
2022-12-04T10:32:57.827Z,2.88
2022-12-04T10:33:57.965Z,2.88
2022-12-04T10:34:58.124Z,3.04
2022-12-04T10:35:58.226Z,3.04
2022-12-04T10:36:58.399Z,3.04
2022-12-04T10:37:58.528Z,3.04
2022-12-04T10:38:58.627Z,3.04
2022-12-04T10:39:58.981Z,3.04
2022-12-04T10:40:58.933Z,3.12
2022-12-04T10:41:59.087Z,3.04
2022-12-04T10:42:59.244Z,3.12
2022-12-04T10:43:59.389Z,3.04
2022-12-04T10:44:59.538Z,3.04
2022-12-04T10:45:59.680Z,3.04
2022-12-04T10:46:59.900Z,3.2
2022-12-04T10:47:59.993Z,3.2
2022-12-04T10:49:00.137Z,3.12
2022-12-04T10:50:00.259Z,3.12
2022-12-04T10:51:00.394Z,3.04
2022-12-04T10:52:00.502Z,3.12
2022-12-04T10:53:00.653Z,3.12
2022-12-04T10:54:00.748Z,3.2
2022-12-04T10:55:00.890Z,3.2
2022-12-04T10:56:00.999Z,3.12
2022-12-04T10:57:01.175Z,3.12
2022-12-04T10:58:01.320Z,3.12
2022-12-04T10:59:01.462Z,3.28
2022-12-04T11:00:01.615Z,3.44
2022-12-04T11:01:01.696Z,3.52
2022-12-04T11:02:06.486Z,3.68
2022-12-04T11:03:02.019Z,3.52
2022-12-04T11:04:02.103Z,3.28
2022-12-04T11:05:02.275Z,3.44
2022-12-04T11:06:02.411Z,3.6
2022-12-04T11:07:02.579Z,3.6
2022-12-04T11:08:02.926Z,3.44
2022-12-04T11:09:02.861Z,3.2
2022-12-04T11:10:02.975Z,3.2
2022-12-04T11:11:03.126Z,3.2
2022-12-04T11:12:03.276Z,3.2
2022-12-04T11:13:03.423Z,3.12
2022-12-04T11:14:03.589Z,3.04
2022-12-04T11:15:03.735Z,2.88
2022-12-04T11:16:03.922Z,2.88
2022-12-04T11:17:04.042Z,3.04
2022-12-04T11:18:04.129Z,3.04
2022-12-04T11:19:04.293Z,2.88
2022-12-04T11:20:04.455Z,3.04
2022-12-04T11:21:04.588Z,3.04
2022-12-04T11:22:04.739Z,3.04
2022-12-04T11:23:04.832Z,3.04
2022-12-04T11:24:04.992Z,2.88
2022-12-04T11:25:05.139Z,3.04
2022-12-04T11:26:06.083Z,3.04
2022-12-04T11:27:05.404Z,3.28
2022-12-04T11:28:05.552Z,3.12
2022-12-04T11:29:05.642Z,3.12
2022-12-04T11:30:05.807Z,3.2
2022-12-04T11:31:05.988Z,3.12
2022-12-04T11:32:07.699Z,3.2
2022-12-04T11:33:06.246Z,3.2
2022-12-04T11:34:06.401Z,3.44
2022-12-04T11:35:06.582Z,3.44
2022-12-04T11:36:06.740Z,3.6
2022-12-04T11:37:06.825Z,3.44
2022-12-04T11:38:06.965Z,3.52
2022-12-04T11:39:07.073Z,3.44
2022-12-04T11:40:07.170Z,3.44
2022-12-04T11:41:07.320Z,3.28
2022-12-04T11:42:07.465Z,3.28
2022-12-04T11:43:07.626Z,3.28
2022-12-04T11:44:07.780Z,2.88
2022-12-04T11:45:07.930Z,2.88
2022-12-04T11:46:08.065Z,2.88
2022-12-04T11:47:08.276Z,3.04
2022-12-04T11:48:08.385Z,3.04
2022-12-04T11:49:08.531Z,3.12
2022-12-04T11:50:08.691Z,3.2
2022-12-04T11:51:08.820Z,3.04
2022-12-04T11:52:08.990Z,2.88
2022-12-04T11:53:09.141Z,2.88
2022-12-04T11:54:09.282Z,2.8
2022-12-04T11:55:09.448Z,2.8
2022-12-04T11:56:09.583Z,2.8
2022-12-04T11:57:09.738Z,2.72
2022-12-04T11:58:09.890Z,2.88
2022-12-04T11:59:10.009Z,2.8
2022-12-04T12:00:10.139Z,2.88
2022-12-04T12:01:10.277Z,3.04
2022-12-04T12:02:10.501Z,2.88
2022-12-04T12:03:10.682Z,2.88
2022-12-04T12:04:10.647Z,2.8
2022-12-04T12:05:10.812Z,2.88
2022-12-04T12:06:10.955Z,2.88
2022-12-04T12:07:11.091Z,3.04
2022-12-04T12:08:11.260Z,2.88
2022-12-04T12:09:11.359Z,2.8
2022-12-04T12:10:11.457Z,2.88
2022-12-04T12:11:11.613Z,2.88
2022-12-04T12:12:11.748Z,2.88
2022-12-04T12:13:11.909Z,2.72
2022-12-04T12:14:12.069Z,2.88
2022-12-04T12:15:12.171Z,2.88
2022-12-04T12:16:12.330Z,2.88
2022-12-04T12:17:12.472Z,3.2
2022-12-04T12:18:12.986Z,3.04
2022-12-04T12:19:12.746Z,2.88
2022-12-04T12:20:12.860Z,2.88
2022-12-04T12:21:13.016Z,2.88
2022-12-04T12:22:13.180Z,2.88
2022-12-04T12:23:13.346Z,3.04
2022-12-04T12:24:13.478Z,2.88
2022-12-04T12:25:13.578Z,2.88
2022-12-04T12:26:13.717Z,2.8
2022-12-04T12:27:13.825Z,2.8
2022-12-04T12:28:13.982Z,2.8
2022-12-04T12:29:14.135Z,2.88
2022-12-04T12:30:14.318Z,2.88
2022-12-04T12:31:14.479Z,3.04
2022-12-04T12:32:14.643Z,3.04
2022-12-04T12:33:14.720Z,2.88
2022-12-04T12:34:14.908Z,2.88
2022-12-04T12:35:15.039Z,3.04
2022-12-04T12:36:15.188Z,2.88
2022-12-04T12:37:15.345Z,2.88
2022-12-04T12:38:15.450Z,3.04
2022-12-04T12:39:15.611Z,3.04
2022-12-04T12:40:15.755Z,2.88
2022-12-04T12:41:15.905Z,3.04
2022-12-04T12:42:16.054Z,3.04
2022-12-04T12:43:16.235Z,3.12
2022-12-04T12:44:16.405Z,3.04
2022-12-04T12:45:16.508Z,3.12
2022-12-04T12:46:16.706Z,3.28
2022-12-04T12:47:16.804Z,3.12
2022-12-04T12:48:16.959Z,3.12
2022-12-04T12:49:17.114Z,3.28
2022-12-04T12:50:17.267Z,3.2
2022-12-04T12:52:17.549Z,3.12
2022-12-04T12:53:17.721Z,3.28
2022-12-04T12:54:17.870Z,3.2
2022-12-04T12:55:17.995Z,3.2
2022-12-04T12:56:18.112Z,3.2
2022-12-04T12:57:18.237Z,3.12
2022-12-04T12:58:18.378Z,3.04
2022-12-04T12:59:18.540Z,3.2
2022-12-04T13:00:18.681Z,3.2
2022-12-04T13:01:18.801Z,3.28
2022-12-04T13:02:18.879Z,3.28
2022-12-04T13:03:19.025Z,3.44
2022-12-04T13:04:19.127Z,3.44
2022-12-04T13:05:19.573Z,3.44
2022-12-04T13:06:19.374Z,3.2
2022-12-04T13:07:20.025Z,3.28
2022-12-04T13:08:19.693Z,3.28
2022-12-04T13:09:19.788Z,3.28
2022-12-04T13:10:19.889Z,3.2
2022-12-04T13:11:20.032Z,3.2
2022-12-04T13:12:20.189Z,3.2
2022-12-04T13:13:20.291Z,3.2
2022-12-04T13:14:20.400Z,3.2
2022-12-04T13:15:20.552Z,3.2
2022-12-04T13:16:20.730Z,3.28
2022-12-04T13:17:20.857Z,3.44
2022-12-04T13:18:21.020Z,3.2
2022-12-04T13:19:21.138Z,3.2
2022-12-04T13:20:21.327Z,3.2
2022-12-04T13:21:21.452Z,3.12
2022-12-04T13:22:21.559Z,3.2
2022-12-04T13:23:21.712Z,3.12
2022-12-04T13:24:21.858Z,3.28
2022-12-04T13:25:22.018Z,3.2
2022-12-04T13:26:22.168Z,3.2
2022-12-04T13:27:22.317Z,3.2
2022-12-04T13:28:22.630Z,3.2
2022-12-04T13:29:22.615Z,3.2